Time;durP1;ratioP1;P1;durP2;ratioP2;P2;SDS_P1;SDS_P2;PMS_P1;PMS_P2;Temp;Humidity;BMP_temperature;BMP_pressure;BME280_temperature;BME280_humidity;BME280_pressure;Samples;Min_cycle;Max_cycle;Signal;HPM_P1;HPM_P2
2020/12/25 00:00:24;;;;;;;20.95;5.97;;;4.40;99.90;;;;;;5067059;28;20035;-64
2020/12/25 00:02:50;;;;;;;18.40;6.07;;;4.30;99.90;;;;;;5067741;28;20036;-60
2020/12/25 00:05:16;;;;;;;18.23;5.78;;;4.30;99.90;;;;;;5065826;28;20378;-63
2020/12/25 00:07:41;;;;;;;18.90;5.82;;;4.20;99.90;;;;;;5049053;28;20032;-62
2020/12/25 00:10:07;;;;;;;17.98;5.88;;;4.20;99.90;;;;;;5065076;28;20082;-63
2020/12/25 00:12:32;;;;;;;16.83;5.60;;;4.10;99.90;;;;;;5067103;28;20408;-63
2020/12/25 00:14:58;;;;;;;19.27;5.45;;;4.10;99.90;;;;;;5054697;28;20572;-62
2020/12/25 00:17:24;;;;;;;20.15;5.85;;;4.10;99.90;;;;;;5047217;28;20096;-63
2020/12/25 00:19:49;;;;;;;19.13;5.70;;;4.00;99.90;;;;;;5046952;28;20021;-62
2020/12/25 00:22:15;;;;;;;17.77;5.43;;;4.00;99.90;;;;;;5053716;28;20028;-61
2020/12/25 00:24:44;;;;;;;20.02;5.28;;;4.00;99.90;;;;;;5065920;28;20145;-60
2020/12/25 00:27:09;;;;;;;;;;;4.00;99.90;;;;;;5067184;28;20032;-62
2020/12/25 00:29:35;;;;;;;19.00;6.03;;;3.90;99.90;;;;;;5082028;28;20002;-62
2020/12/25 00:32:00;;;;;;;18.10;4.90;;;3.90;99.90;;;;;;5064952;28;20036;-63
2020/12/25 00:34:26;;;;;;;17.98;5.22;;;3.90;99.90;;;;;;5058400;28;20100;-64
2020/12/25 00:36:52;;;;;;;18.02;5.10;;;3.80;99.90;;;;;;5066432;28;20032;-61
2020/12/25 00:39:19;;;;;;;16.02;4.80;;;3.80;99.90;;;;;;5068664;28;20024;-66
2020/12/25 00:41:49;;;;;;;17.73;4.82;;;3.70;99.90;;;;;;5068172;28;20579;-64
2020/12/25 00:44:15;;;;;;;17.55;5.55;;;3.70;99.90;;;;;;5070599;28;20039;-65
2020/12/25 00:46:42;;;;;;;14.88;4.47;;;3.70;99.90;;;;;;5067750;28;20029;-64
2020/12/25 00:49:08;;;;;;;17.92;5.03;;;3.80;99.90;;;;;;5070043;28;20069;-64
2020/12/25 00:51:34;;;;;;;19.90;4.93;;;3.70;99.90;;;;;;5070716;28;20035;-61
2020/12/25 00:54:00;;;;;;;17.10;5.72;;;3.70;99.90;;;;;;5070452;28;20029;-62
2020/12/25 00:56:26;;;;;;;13.45;4.45;;;3.60;99.90;;;;;;5069357;28;20028;-55
2020/12/25 00:58:51;;;;;;;14.10;4.68;;;3.60;99.90;;;;;;5068122;28;20021;-62
2020/12/25 01:01:17;;;;;;;14.02;4.50;;;3.70;99.90;;;;;;5070691;28;20056;-62
2020/12/25 01:03:44;;;;;;;13.73;4.70;;;3.60;99.90;;;;;;5068925;28;20116;-62
2020/12/25 01:06:14;;;;;;;19.35;5.00;;;3.60;99.90;;;;;;5069048;28;20033;-63
2020/12/25 01:08:40;;;;;;;13.77;4.15;;;3.50;99.90;;;;;;5068669;28;20028;-63
2020/12/25 01:11:07;;;;;;;14.75;4.30;;;3.50;99.90;;;;;;5070578;28;20069;-63
2020/12/25 01:13:34;;;;;;;14.43;4.15;;;3.50;99.90;;;;;;5071014;28;20031;-64
2020/12/25 01:16:15;;;;;;;15.63;5.15;;;3.50;99.90;;;;;;5070681;28;20020;-64
2020/12/25 01:18:43;;;;;;;13.15;4.10;;;3.50;99.90;;;;;;5068661;28;20024;-63
2020/12/25 01:21:10;;;;;;;18.98;4.68;;;3.50;99.90;;;;;;5070397;28;20100;-64
2020/12/25 01:23:36;;;;;;;13.75;3.97;;;3.40;99.90;;;;;;5070452;28;20033;-63
2020/12/25 01:26:05;;;;;;;12.23;4.03;;;3.40;99.90;;;;;;5070419;28;20024;-63
2020/12/25 01:28:30;;;;;;;12.90;3.95;;;3.40;99.90;;;;;;5068007;28;20056;-62
2020/12/25 01:30:56;;;;;;;16.88;4.43;;;3.40;99.90;;;;;;5069923;28;20071;-63
2020/12/25 01:33:21;;;;;;;13.30;3.80;;;3.40;99.90;;;;;;5051500;28;20025;-59
2020/12/25 01:35:47;;;;;;;18.13;3.90;;;3.30;99.90;;;;;;5068406;28;20036;-63
2020/12/25 01:38:13;;;;;;;21.15;4.90;;;3.30;99.90;;;;;;5071110;28;20402;-63
2020/12/25 01:40:39;;;;;;;14.20;3.92;;;3.30;99.90;;;;;;5073068;28;20447;-62
2020/12/25 01:43:05;;;;;;;15.02;3.90;;;3.30;99.90;;;;;;5073364;28;20533;-62
2020/12/25 01:45:31;;;;;;;14.50;3.80;;;3.20;99.90;;;;;;5069356;28;20073;-63
2020/12/25 01:47:58;;;;;;;14.43;3.72;;;3.10;99.90;;;;;;5073431;28;20031;-63
2020/12/25 01:50:26;;;;;;;14.25;3.70;;;3.10;99.90;;;;;;5072973;28;20024;-64
2020/12/25 01:52:54;;;;;;;14.75;4.10;;;3.10;99.90;;;;;;5072119;28;20380;-63
2020/12/25 01:55:24;;;;;;;13.80;3.78;;;3.10;99.90;;;;;;5073412;28;20029;-62
2020/12/25 01:57:53;;;;;;;12.95;4.25;;;3.10;99.90;;;;;;5073206;28;20410;-63
2020/12/25 02:00:19;;;;;;;;;;;3.00;99.90;;;;;;5073488;28;20032;-67
2020/12/25 02:02:45;;;;;;;12.38;3.70;;;3.00;99.90;;;;;;5073163;28;19904;-62
2020/12/25 02:05:11;;;;;;;13.18;4.35;;;3.00;99.90;;;;;;5072046;28;20043;-62
2020/12/25 02:07:36;;;;;;;16.08;3.65;;;2.80;99.90;;;;;;5072843;28;20483;-62
2020/12/25 02:10:02;;;;;;;14.40;3.80;;;2.70;99.90;;;;;;5072648;28;20086;-59
2020/12/25 02:12:28;;;;;;;17.05;3.80;;;2.60;99.90;;;;;;5072887;28;20052;-66
2020/12/25 02:14:54;;;;;;;14.73;4.40;;;2.50;99.90;;;;;;5073113;28;20031;-63
2020/12/25 02:17:20;;;;;;;17.27;4.60;;;2.50;99.90;;;;;;5073020;28;20452;-63
2020/12/25 02:19:46;;;;;;;17.05;3.97;;;2.50;99.90;;;;;;5071288;28;20082;-63
2020/12/25 02:22:12;;;;;;;17.33;4.13;;;2.40;99.90;;;;;;5072289;28;20506;-63
2020/12/25 02:24:38;;;;;;;17.05;3.80;;;2.40;99.90;;;;;;5072747;28;20514;-64
2020/12/25 02:27:03;;;;;;;23.55;4.38;;;2.30;99.90;;;;;;5072941;28;20048;-64
2020/12/25 02:29:29;;;;;;;18.75;4.20;;;2.20;99.90;;;;;;5072405;28;20484;-64
2020/12/25 02:31:55;;;;;;;15.18;4.05;;;2.20;99.90;;;;;;5072732;28;20100;-63
2020/12/25 02:34:21;;;;;;;20.00;4.65;;;2.10;99.90;;;;;;5072825;28;20100;-63
2020/12/25 02:36:47;;;;;;;19.48;4.53;;;2.10;99.90;;;;;;5071837;28;20369;-64
2020/12/25 02:39:13;;;;;;;18.58;4.65;;;2.10;99.90;;;;;;5071787;28;20032;-62
2020/12/25 02:41:38;;;;;;;12.18;3.70;;;2.00;99.90;;;;;;5072852;28;20100;-64
2020/12/25 02:44:04;;;;;;;17.73;3.80;;;2.00;99.90;;;;;;5072568;28;20560;-63
2020/12/25 02:46:30;;;;;;;13.82;3.90;;;;;;;;;;5072586;28;20029;-64
2020/12/25 02:48:56;;;;;;;15.70;3.60;;;;;;;;;;5071844;28;20100;-63
2020/12/25 02:51:22;;;;;;;13.60;3.75;;;;;;;;;;5072684;28;20028;-63
2020/12/25 02:53:48;;;;;;;19.25;3.88;;;;;;;;;;5066603;28;20020;-64
2020/12/25 02:56:18;;;;;;;14.45;3.88;;;;;;;;;;5072341;28;20074;-64
2020/12/25 02:58:44;;;;;;;15.18;3.95;;;;;;;;;;5071599;28;20099;-61
2020/12/25 03:01:11;;;;;;;15.27;3.92;;;1.90;99.90;;;;;;5072243;28;20032;-61
2020/12/25 03:03:38;;;;;;;12.60;3.65;;;1.70;99.90;;;;;;5072578;28;20051;-64
2020/12/25 03:06:04;;;;;;;18.33;4.40;;;1.70;99.90;;;;;;5072832;28;20025;-63
2020/12/25 03:08:29;;;;;;;18.75;3.75;;;1.60;99.90;;;;;;5071206;28;20063;-60
2020/12/25 03:10:55;;;;;;;14.23;3.67;;;1.60;99.90;;;;;;5072176;28;20103;-61
2020/12/25 03:13:21;;;;;;;17.55;3.60;;;1.60;99.90;;;;;;5072124;28;20020;-61
2020/12/25 03:15:47;;;;;;;15.93;3.80;;;1.50;99.90;;;;;;5072025;28;20350;-62
2020/12/25 03:18:12;;;;;;;13.82;3.47;;;1.50;99.90;;;;;;5071647;28;20012;-60
2020/12/25 03:20:38;;;;;;;15.85;3.35;;;1.50;99.90;;;;;;5071310;28;20067;-62
2020/12/25 03:23:03;;;;;;;21.42;4.10;;;1.50;99.90;;;;;;5070023;28;20024;-63
2020/12/25 03:25:29;;;;;;;13.77;3.20;;;1.40;99.90;;;;;;5054568;28;20028;-61
2020/12/25 03:27:55;;;;;;;17.42;3.95;;;1.40;99.90;;;;;;5070212;28;20025;-62
2020/12/25 03:30:21;;;;;;;19.23;3.97;;;1.50;99.90;;;;;;5069904;28;20059;-63
2020/12/25 03:32:47;;;;;;;18.60;4.18;;;1.60;99.90;;;;;;5071450;28;20028;-63
2020/12/25 03:35:13;;;;;;;19.25;4.10;;;1.60;99.90;;;;;;5071589;28;20103;-58
2020/12/25 03:37:39;;;;;;;13.80;3.75;;;1.60;99.90;;;;;;5071286;28;20046;-62
2020/12/25 03:40:04;;;;;;;16.13;3.70;;;1.50;99.90;;;;;;5070098;28;20021;-62
2020/12/25 03:42:30;;;;;;;13.40;4.07;;;1.50;99.90;;;;;;5071989;28;20043;-62
2020/12/25 03:44:56;;;;;;;10.18;2.90;;;1.60;99.90;;;;;;5071299;28;20025;-63
2020/12/25 03:47:23;;;;;;;17.15;4.25;;;1.60;99.90;;;;;;5070130;28;20032;-60
2020/12/25 03:49:49;;;;;;;15.00;3.40;;;1.60;99.90;;;;;;5069341;28;20391;-62
2020/12/25 03:52:15;;;;;;;18.23;3.30;;;1.50;99.90;;;;;;5071273;28;20039;-62
2020/12/25 03:54:41;;;;;;;17.27;4.35;;;1.60;99.90;;;;;;5067793;28;20021;-62
2020/12/25 03:57:06;;;;;;;16.25;3.80;;;1.60;99.90;;;;;;5060040;28;20025;-62
2020/12/25 03:59:32;;;;;;;13.48;3.60;;;1.50;99.90;;;;;;5070567;28;20017;-63
2020/12/25 04:01:57;;;;;;;19.70;4.00;;;1.50;99.90;;;;;;5070680;28;20488;-63
2020/12/25 04:04:23;;;;;;;14.98;4.43;;;1.50;99.90;;;;;;5071071;28;20020;-61
2020/12/25 04:06:49;;;;;;;17.35;3.88;;;1.50;99.90;;;;;;5070806;28;20033;-63
2020/12/25 04:09:15;;;;;;;17.77;4.05;;;1.50;99.90;;;;;;5070399;28;20024;-62
2020/12/25 04:11:41;;;;;;;16.80;3.47;;;1.40;99.90;;;;;;5070407;28;20120;-62
2020/12/25 04:14:06;;;;;;;17.67;3.85;;;1.40;99.90;;;;;;5069572;28;20021;-63
2020/12/25 04:16:32;;;;;;;14.05;3.70;;;1.30;99.90;;;;;;5069450;28;20107;-62
2020/12/25 04:18:57;;;;;;;16.00;3.58;;;1.40;99.90;;;;;;5070029;28;20092;-61
2020/12/25 04:21:24;;;;;;;12.98;3.25;;;1.40;99.90;;;;;;5069472;28;20461;-57
2020/12/25 04:23:51;;;;;;;18.30;5.22;;;1.40;99.90;;;;;;5070933;28;20087;-62
2020/12/25 04:26:16;;;;;;;13.80;3.40;;;1.40;99.90;;;;;;5062542;28;20071;-62
2020/12/25 04:28:42;;;;;;;18.42;3.80;;;1.40;99.90;;;;;;5070071;28;20118;-62
2020/12/25 04:31:08;;;;;;;14.05;3.50;;;1.40;99.90;;;;;;5070034;28;20028;-61
2020/12/25 04:33:34;;;;;;;15.27;3.83;;;1.40;99.90;;;;;;5071702;28;20095;-61
2020/12/25 04:36:00;;;;;;;14.32;3.88;;;1.40;99.90;;;;;;5075931;28;20090;-65
2020/12/25 04:38:26;;;;;;;16.77;3.67;;;1.40;99.90;;;;;;5091747;28;20037;-67
2020/12/25 04:40:52;;;;;;;15.27;3.38;;;1.40;99.90;;;;;;5087218;28;20442;-62
2020/12/25 04:43:18;;;;;;;14.90;3.15;;;1.40;99.90;;;;;;5070047;28;20024;-60
2020/12/25 04:45:44;;;;;;;17.17;3.78;;;1.40;99.90;;;;;;5077818;28;20028;-62
2020/12/25 04:48:10;;;;;;;15.00;4.38;;;1.40;99.90;;;;;;5074023;28;20025;-60
2020/12/25 04:50:36;;;;;;;13.25;3.47;;;1.30;99.90;;;;;;5071773;28;20156;-62
2020/12/25 04:53:02;;;;;;;17.75;4.35;;;1.30;99.90;;;;;;5070003;28;20136;-56
2020/12/25 04:55:27;;;;;;;16.15;4.10;;;1.30;99.90;;;;;;5067580;28;20131;-54
2020/12/25 04:57:57;;;;;;;18.13;3.80;;;1.30;99.90;;;;;;5069794;28;20169;-53
2020/12/25 05:00:23;;;;;;;20.05;3.85;;;1.30;99.90;;;;;;5069380;28;20028;-62
2020/12/25 05:02:50;;;;;;;15.38;3.70;;;1.30;99.90;;;;;;5069007;28;20029;-62
2020/12/25 05:05:17;;;;;;;17.33;3.92;;;1.30;99.90;;;;;;5070515;28;20097;-58
2020/12/25 05:07:46;;;;;;;19.65;4.07;;;1.30;99.90;;;;;;5082705;22;20254;-59
2020/12/25 05:10:12;;;;;;;17.42;3.45;;;1.30;99.90;;;;;;5050843;28;20033;-63
2020/12/25 05:12:39;;;;;;;14.85;4.47;;;1.30;99.90;;;;;;5052422;28;20039;-57
2020/12/25 05:15:08;;;;;;;15.52;3.58;;;1.30;99.90;;;;;;5055461;28;20024;-60
2020/12/25 05:17:35;;;;;;;16.63;4.13;;;1.20;99.90;;;;;;5055408;28;20370;-61
2020/12/25 05:20:03;;;;;;;19.70;4.30;;;1.20;99.90;;;;;;5053950;28;20036;-62
2020/12/25 05:22:29;;;;;;;21.20;4.40;;;1.30;99.90;;;;;;5055436;28;20021;-61
2020/12/25 05:25:03;;;;;;;18.33;5.55;;;1.30;99.90;;;;;;5055305;28;20507;-59
2020/12/25 05:27:30;;;;;;;14.40;3.90;;;1.30;99.90;;;;;;5044101;28;20052;-61
2020/12/25 05:30:04;;;;;;;16.85;3.70;;;1.30;99.90;;;;;;5040891;28;20396;-61
2020/12/25 05:32:32;;;;;;;16.33;4.05;;;1.50;99.90;;;;;;5055091;28;20115;-60
2020/12/25 05:34:58;;;;;;;18.80;3.85;;;1.30;99.90;;;;;;5039981;28;20020;-59
2020/12/25 05:37:37;;;;;;;14.63;3.40;;;1.40;99.90;;;;;;5042048;28;20025;-61
2020/12/25 05:40:05;;;;;;;17.20;4.03;;;1.50;99.90;;;;;;5054764;28;20104;-61
2020/12/25 05:42:51;;;;;;;15.77;3.78;;;1.60;99.90;;;;;;5047645;28;20086;-61
2020/12/25 05:45:21;;;;;;;17.80;4.38;;;1.60;99.90;;;;;;5054767;28;20385;-61
2020/12/25 05:48:01;;;;;;;14.32;3.50;;;1.60;99.90;;;;;;5053447;28;20031;-61
2020/12/25 05:50:28;;;;;;;19.33;3.80;;;1.70;99.90;;;;;;5043420;28;20033;-61
2020/12/25 05:52:55;;;;;;;18.02;3.78;;;1.70;99.90;;;;;;5036828;28;20048;-60
2020/12/25 05:55:21;;;;;;;14.93;4.43;;;1.80;99.90;;;;;;5037188;28;20029;-61
2020/12/25 05:57:50;;;;;;;18.33;3.67;;;1.90;99.90;;;;;;5039782;28;20036;-61
2020/12/25 06:00:20;;;;;;;19.00;3.55;;;2.00;99.90;;;;;;5037476;28;20025;-61
2020/12/25 06:02:48;;;;;;;17.15;3.47;;;2.00;99.90;;;;;;5054715;28;20033;-62
2020/12/25 06:05:15;;;;;;;17.50;4.35;;;2.10;99.90;;;;;;5051465;28;20032;-61
2020/12/25 06:07:48;;;;;;;15.65;3.70;;;2.10;99.90;;;;;;5053206;28;20099;-61
2020/12/25 06:10:15;;;;;;;13.10;3.65;;;2.20;99.90;;;;;;5038259;28;20033;-60
2020/12/25 06:12:42;;;;;;;14.50;3.80;;;2.30;99.90;;;;;;5036162;28;20033;-61
2020/12/25 06:15:11;;;;;;;18.50;3.80;;;2.40;99.90;;;;;;5054514;28;20079;-58
2020/12/25 06:17:41;;;;;;;16.65;4.55;;;2.40;99.90;;;;;;5054169;28;20032;-61
2020/12/25 06:20:13;;;;;;;16.45;3.78;;;2.40;99.90;;;;;;5053615;28;20013;-60
2020/12/25 06:22:44;;;;;;;21.25;4.00;;;2.40;99.90;;;;;;5054315;28;20099;-60
2020/12/25 06:25:15;;;;;;;17.80;5.05;;;2.40;99.90;;;;;;5054170;28;20029;-61
2020/12/25 06:28:01;;;;;;;19.10;4.20;;;2.40;99.90;;;;;;5054143;28;20441;-60
2020/12/25 06:30:29;;;;;;;17.40;4.18;;;2.30;99.90;;;;;;5045429;28;20033;-60
2020/12/25 06:32:56;;;;;;;17.97;4.30;;;2.30;99.90;;;;;;5053898;28;20058;-61
2020/12/25 06:35:37;;;;;;;18.48;4.38;;;2.20;99.90;;;;;;5033051;28;20035;-61
2020/12/25 06:38:11;;;;;;;17.38;4.65;;;2.20;99.90;;;;;;5043617;28;20756;-62
2020/12/25 06:40:37;;;;;;;15.68;4.45;;;2.20;99.90;;;;;;5053346;28;20021;-61
2020/12/25 06:43:16;;;;;;;15.55;4.32;;;2.20;99.90;;;;;;5036084;28;20055;-59
2020/12/25 06:45:43;;;;;;;19.13;3.83;;;2.30;99.90;;;;;;5053756;28;20108;-61
2020/12/25 06:48:10;;;;;;;16.25;4.05;;;2.30;99.90;;;;;;5051709;28;20146;-62
2020/12/25 06:50:41;;;;;;;13.60;4.28;;;2.30;99.90;;;;;;5047808;28;20032;-61
2020/12/25 06:53:07;;;;;;;15.85;4.10;;;2.30;99.90;;;;;;5053601;28;20499;-60
2020/12/25 06:55:44;;;;;;;21.02;4.47;;;2.30;99.90;;;;;;5035946;28;20121;-61
2020/12/25 06:58:17;;;;;;;21.88;5.43;;;2.20;99.90;;;;;;5052879;28;20435;-55
2020/12/25 07:00:43;;;;;;;14.60;4.32;;;2.20;99.90;;;;;;5053320;28;20091;-61
2020/12/25 07:03:13;;;;;;;12.77;4.60;;;2.20;99.90;;;;;;5053388;28;20017;-61
2020/12/25 07:05:49;;;;;;;19.83;5.13;;;2.10;99.90;;;;;;5053506;28;20496;-61
2020/12/25 07:08:38;;;;;;;15.80;4.95;;;2.10;99.90;;;;;;5035323;28;20041;-62
2020/12/25 07:11:08;;;;;;;18.55;4.57;;;2.00;99.90;;;;;;5053346;28;20108;-62
2020/12/25 07:13:35;;;;;;;20.13;4.40;;;1.90;99.90;;;;;;5052149;28;20510;-57
2020/12/25 07:16:02;;;;;;;18.50;4.50;;;1.80;99.90;;;;;;5051983;28;20467;-61
2020/12/25 07:18:28;;;;;;;20.98;4.78;;;1.70;99.90;;;;;;5035407;28;20121;-60
2020/12/25 07:20:58;;;;;;;14.77;4.20;;;1.70;99.90;;;;;;5019623;28;20464;-59
2020/12/25 07:23:24;;;;;;;16.48;4.18;;;1.70;99.90;;;;;;5053199;28;20399;-61
2020/12/25 07:25:50;;;;;;;17.25;5.38;;;1.60;99.90;;;;;;5053265;28;20040;-60
2020/12/25 07:28:21;;;;;;;21.05;5.15;;;1.60;99.90;;;;;;5052834;28;20027;-61
2020/12/25 07:30:47;;;;;;;15.55;4.45;;;1.40;99.90;;;;;;5052464;28;20036;-61
2020/12/25 07:33:13;;;;;;;20.35;4.65;;;1.40;99.90;;;;;;5046508;28;20047;-60
2020/12/25 07:35:40;;;;;;;25.48;4.78;;;1.40;99.90;;;;;;5034356;28;20445;-61
2020/12/25 07:38:06;;;;;;;20.55;4.72;;;1.40;99.90;;;;;;5052529;28;20100;-61
2020/12/25 07:40:32;;;;;;;22.17;5.60;;;1.40;99.90;;;;;;5052161;28;20025;-60
2020/12/25 07:42:58;;;;;;;16.88;4.85;;;1.30;99.90;;;;;;5051742;28;20032;-61
2020/12/25 07:45:23;;;;;;;20.70;5.13;;;1.30;99.90;;;;;;5034752;28;20100;-63
2020/12/25 07:47:49;;;;;;;19.08;4.35;;;1.20;99.90;;;;;;5052560;28;20025;-61
2020/12/25 07:50:16;;;;;;;17.77;4.78;;;1.20;99.90;;;;;;5050782;28;20174;-62
2020/12/25 07:52:42;;;;;;;15.63;4.78;;;1.20;99.90;;;;;;5051923;28;20443;-60
2020/12/25 07:55:15;;;;;;;16.73;5.07;;;1.20;99.90;;;;;;5051207;28;20048;-62
2020/12/25 07:57:41;;;;;;;19.15;6.55;;;1.20;99.90;;;;;;5051997;28;20112;-61
2020/12/25 08:00:07;;;;;;;17.17;5.30;;;1.20;99.90;;;;;;5034209;28;20048;-58
2020/12/25 08:02:35;;;;;;;16.83;4.95;;;1.30;99.90;;;;;;5052423;28;20445;-59
2020/12/25 08:05:01;;;;;;;17.85;5.10;;;1.30;99.90;;;;;;5052283;28;20031;-61
2020/12/25 08:07:26;;;;;;;22.33;6.22;;;1.30;99.90;;;;;;5051587;28;20033;-60
2020/12/25 08:09:54;;;;;;;18.95;4.82;;;1.40;99.90;;;;;;5050493;28;20037;-61
2020/12/25 08:12:23;;;;;;;17.95;4.78;;;1.50;99.90;;;;;;5052120;28;20021;-61
2020/12/25 08:14:50;;;;;;;17.88;4.45;;;1.60;99.90;;;;;;5034133;28;20047;-61
2020/12/25 08:17:16;;;;;;;17.77;4.43;;;1.70;99.90;;;;;;5034532;28;20032;-61
2020/12/25 08:19:46;;;;;;;21.40;6.20;;;1.80;99.90;;;;;;5051280;28;20112;-61
2020/12/25 08:22:12;;;;;;;19.02;7.05;;;1.90;99.90;;;;;;5052005;28;20039;-56
2020/12/25 08:24:39;;;;;;;21.05;5.63;;;2.00;99.90;;;;;;5035596;28;20500;-59
2020/12/25 08:27:05;;;;;;;16.70;4.53;;;2.00;99.90;;;;;;5045733;28;20434;-61
2020/12/25 08:29:32;;;;;;;19.17;5.55;;;2.10;99.90;;;;;;5051420;28;20078;-61
2020/12/25 08:32:06;;;;;;;18.40;5.05;;;2.20;99.90;;;;;;5053463;28;20064;-59
2020/12/25 08:34:32;;;;;;;16.65;4.82;;;2.20;99.90;;;;;;5033938;28;20018;-61
2020/12/25 08:37:00;;;;;;;17.40;5.40;;;2.10;99.90;;;;;;5052330;28;20427;-63
2020/12/25 08:39:27;;;;;;;19.60;5.20;;;2.10;99.90;;;;;;5049913;28;20028;-61
2020/12/25 08:41:55;;;;;;;17.30;4.53;;;2.20;99.90;;;;;;5052086;28;20082;-62
2020/12/25 08:44:21;;;;;;;16.33;4.40;;;2.20;99.90;;;;;;5050596;28;20029;-61
2020/12/25 08:46:46;;;;;;;16.25;5.20;;;2.40;99.90;;;;;;5050161;28;20028;-57
2020/12/25 08:49:23;;;;;;;12.98;4.43;;;2.40;99.90;;;;;;5049694;28;20392;-60
2020/12/25 08:51:49;;;;;;;16.52;4.82;;;2.40;99.90;;;;;;5048063;28;20083;-60
2020/12/25 08:54:24;;;;;;;20.00;6.40;;;2.50;99.90;;;;;;5016647;28;20021;-61
2020/12/25 08:56:50;;;;;;;14.27;3.88;;;2.60;99.90;;;;;;5050809;28;20360;-61
2020/12/25 08:59:20;;;;;;;13.40;4.05;;;2.70;99.90;;;;;;5047464;28;20018;-59
2020/12/25 09:01:46;;;;;;;16.48;4.82;;;2.70;99.90;;;;;;5033377;28;20029;-61
2020/12/25 09:04:13;;;;;;;16.38;4.15;;;2.70;99.90;;;;;;5051319;28;20025;-57
2020/12/25 09:06:39;;;;;;;15.90;4.18;;;2.70;99.90;;;;;;5050083;28;20499;-61
2020/12/25 09:09:04;;;;;;;14.38;4.47;;;2.70;99.90;;;;;;5036650;28;20037;-58
2020/12/25 09:11:30;;;;;;;14.73;4.30;;;2.70;99.90;;;;;;5049096;28;20535;-59
2020/12/25 09:13:55;;;;;;;15.27;4.30;;;2.60;99.90;;;;;;5043609;28;20029;-61
2020/12/25 09:16:21;;;;;;;15.02;4.47;;;2.50;99.90;;;;;;5033459;28;20499;-61
2020/12/25 09:18:48;;;;;;;16.13;4.72;;;2.50;99.90;;;;;;5049227;28;20368;-61
2020/12/25 09:21:15;;;;;;;17.77;4.50;;;2.40;99.90;;;;;;5043622;28;20056;-60
2020/12/25 09:23:41;;;;;;;15.85;4.35;;;2.40;99.90;;;;;;5035169;28;20029;-53
2020/12/25 09:26:13;;;;;;;16.75;4.40;;;2.40;99.90;;;;;;5051279;28;20423;-63
2020/12/25 09:28:41;;;;;;;15.45;4.57;;;2.50;99.90;;;;;;5042342;28;20025;-61
2020/12/25 09:31:08;;;;;;;17.50;5.15;;;2.50;99.90;;;;;;5051022;28;20104;-59
2020/12/25 09:33:35;;;;;;;15.77;5.20;;;2.40;99.90;;;;;;5050790;28;20029;-61
2020/12/25 09:36:03;;;;;;;17.98;5.10;;;2.40;99.90;;;;;;5051131;28;20043;-60
2020/12/25 09:38:29;;;;;;;;;;;2.40;99.90;;;;;;5051319;28;20016;-61
2020/12/25 09:40:55;;;;;;;15.82;4.88;;;2.60;99.90;;;;;;5051649;28;19904;-60
2020/12/25 09:43:20;;;;;;;14.93;4.65;;;2.80;99.90;;;;;;5051102;28;20036;-62
2020/12/25 09:45:46;;;;;;;15.57;4.85;;;3.10;99.90;;;;;;5051178;28;20025;-56
2020/12/25 09:48:12;;;;;;;18.38;4.43;;;3.20;99.90;;;;;;5049735;28;20477;-61
2020/12/25 09:50:38;;;;;;;17.42;4.22;;;;;;;;;;5050759;28;20017;-62
2020/12/25 09:53:04;;;;;;;16.10;4.78;;;;;;;;;;5040267;28;20029;-62
2020/12/25 09:55:36;;;;;;;17.45;4.68;;;;;;;;;;5051001;28;20511;-62
2020/12/25 09:58:03;;;;;;;13.43;3.50;;;3.40;99.90;;;;;;5033006;28;20132;-62
2020/12/25 10:00:28;;;;;;;16.05;3.90;;;3.90;99.90;;;;;;5036074;28;20021;-62
2020/12/25 10:02:54;;;;;;;14.63;4.38;;;4.00;99.90;;;;;;5054293;28;20511;-60
2020/12/25 10:05:19;;;;;;;15.13;3.60;;;4.00;99.90;;;;;;5053816;28;20100;-62
2020/12/25 10:07:46;;;;;;;15.02;5.07;;;4.20;99.90;;;;;;5037334;28;20040;-60
2020/12/25 10:10:14;;;;;;;12.38;3.55;;;4.20;99.90;;;;;;5035939;28;20056;-61
2020/12/25 10:12:40;;;;;;;11.13;3.75;;;4.20;99.90;;;;;;5054133;28;20033;-60
2020/12/25 10:15:07;;;;;;;12.98;3.60;;;4.10;99.90;;;;;;5049563;28;20029;-60
2020/12/25 10:17:34;;;;;;;18.83;5.07;;;4.10;99.90;;;;;;5054100;28;20387;-57
2020/12/25 10:19:59;;;;;;;13.80;4.22;;;4.00;99.90;;;;;;5053796;28;20025;-55
2020/12/25 10:22:25;;;;;;;12.35;3.90;;;3.80;99.90;;;;;;5052896;28;20025;-62
2020/12/25 10:24:51;;;;;;;15.98;4.78;;;3.70;99.90;;;;;;5053934;28;20055;-60
2020/12/25 10:27:16;;;;;;;13.13;3.90;;;3.60;99.90;;;;;;5022462;28;20559;-59
2020/12/25 10:29:42;;;;;;;12.07;4.05;;;3.50;99.90;;;;;;5033532;28;20489;-61
2020/12/25 10:32:08;;;;;;;16.67;4.05;;;3.50;99.90;;;;;;5033915;28;20057;-62
2020/12/25 10:34:34;;;;;;;12.25;3.65;;;3.40;99.90;;;;;;5044882;28;20391;-62
2020/12/25 10:37:00;;;;;;;15.85;4.30;;;3.30;99.90;;;;;;5036321;28;20029;-60
2020/12/25 10:39:26;;;;;;;16.05;4.30;;;3.40;99.90;;;;;;5051190;28;20021;-57
2020/12/25 10:41:51;;;;;;;18.08;4.60;;;3.40;99.90;;;;;;5053411;28;20028;-61
2020/12/25 10:44:17;;;;;;;12.80;4.55;;;3.50;99.90;;;;;;5044896;28;20054;-61
2020/12/25 10:46:43;;;;;;;14.18;4.35;;;3.60;99.90;;;;;;5053418;28;20444;-63
2020/12/25 10:49:08;;;;;;;14.80;4.20;;;3.60;99.90;;;;;;5052889;28;20071;-67
2020/12/25 10:51:34;;;;;;;13.20;4.40;;;3.80;99.90;;;;;;5052071;28;20057;-63
2020/12/25 10:54:00;;;;;;;13.68;3.78;;;4.40;99.90;;;;;;5042399;28;20024;-62
2020/12/25 10:56:28;;;;;;;16.10;4.55;;;4.90;99.90;;;;;;5053378;28;20021;-62
2020/12/25 10:58:55;;;;;;;16.55;3.88;;;5.60;99.90;;;;;;5034549;28;20029;-57
2020/12/25 11:01:24;;;;;;;18.35;4.32;;;6.20;99.90;;;;;;5052810;28;20496;-60
2020/12/25 11:03:50;;;;;;;17.92;4.95;;;6.90;99.90;;;;;;5035303;28;20024;-60
2020/12/25 11:06:16;;;;;;;14.18;5.35;;;7.20;99.90;;;;;;5052077;28;20396;-60
2020/12/25 11:08:42;;;;;;;19.65;5.35;;;7.50;99.90;;;;;;5053561;28;20036;-62
2020/12/25 11:11:07;;;;;;;17.23;5.82;;;7.60;99.90;;;;;;5051889;28;20379;-61
2020/12/25 11:13:34;;;;;;;17.63;6.75;;;8.10;99.90;;;;;;5047395;28;20017;-59
2020/12/25 11:16:00;;;;;;;14.80;6.18;;;8.60;99.90;;;;;;5049310;28;20025;-59
2020/12/25 11:18:26;;;;;;;14.52;5.18;;;8.40;99.90;;;;;;5052304;28;20029;-60
2020/12/25 11:20:52;;;;;;;16.77;4.22;;;7.60;99.90;;;;;;5053121;28;20048;-58
2020/12/25 11:23:18;;;;;;;18.67;4.35;;;6.90;99.90;;;;;;5050424;28;20064;-60
2020/12/25 11:25:44;;;;;;;14.10;4.60;;;6.50;99.90;;;;;;5037314;28;20021;-60
2020/12/25 11:28:10;;;;;;;13.82;4.40;;;6.60;99.90;;;;;;4699972;28;10000046;-59
2020/12/25 11:30:35;;;;;;;19.50;5.00;;;7.40;99.90;;;;;;5041116;28;20480;-59
2020/12/25 11:33:01;;;;;;;18.35;5.43;;;8.30;99.90;;;;;;5041060;28;20124;-61
2020/12/25 11:35:27;;;;;;;14.20;4.80;;;8.50;99.90;;;;;;5029776;28;20492;-60
2020/12/25 11:37:53;;;;;;;20.58;5.18;;;7.80;99.90;;;;;;5017985;28;20447;-62
2020/12/25 11:40:19;;;;;;;15.32;4.97;;;7.90;99.90;;;;;;5036461;28;20056;-59
2020/12/25 11:42:44;;;;;;;18.83;4.95;;;8.20;99.90;;;;;;5031107;28;20036;-61
2020/12/25 11:45:10;;;;;;;15.48;4.72;;;8.00;99.90;;;;;;5042214;28;20104;-60
2020/12/25 11:47:36;;;;;;;17.73;5.70;;;8.30;99.90;;;;;;5036766;28;20432;-56
2020/12/25 11:50:02;;;;;;;16.33;5.25;;;8.70;99.90;;;;;;5029894;28;20037;-61
2020/12/25 11:52:32;;;;;;;13.75;5.00;;;9.10;99.90;;;;;;5048306;28;20069;-60
2020/12/25 11:54:57;;;;;;;18.95;7.07;;;9.60;99.90;;;;;;5031451;28;20500;-62
2020/12/25 11:57:25;;;;;;;14.73;5.82;;;9.20;99.90;;;;;;5048663;28;20028;-62
2020/12/25 11:59:51;;;;;;;15.83;5.20;;;8.90;99.90;;;;;;5048233;28;20590;-59
2020/12/25 12:02:16;;;;;;;16.45;5.85;;;8.40;99.90;;;;;;5011680;28;20312;-61
2020/12/25 12:04:42;;;;;;;15.27;5.30;;;7.40;99.90;;;;;;5042655;28;20017;-59
2020/12/25 12:07:08;;;;;;;15.55;5.10;;;7.10;99.90;;;;;;5048321;28;20415;-63
2020/12/25 12:09:34;;;;;;;18.77;5.10;;;7.00;99.90;;;;;;5029857;28;20068;-59
2020/12/25 12:12:00;;;;;;;15.68;5.35;;;6.80;99.90;;;;;;5030649;28;20518;-62
2020/12/25 12:14:25;;;;;;;16.33;4.97;;;6.90;99.90;;;;;;5029971;28;20025;-60
2020/12/25 12:16:54;;;;;;;17.10;4.95;;;6.70;99.90;;;;;;5018929;28;20465;-60
2020/12/25 12:19:19;;;;;;;15.57;5.00;;;6.50;99.90;;;;;;5036461;28;20025;-59
2020/12/25 12:21:45;;;;;;;15.93;4.63;;;6.20;99.90;;;;;;5047773;28;20033;-53
2020/12/25 12:24:10;;;;;;;11.93;4.53;;;6.20;99.90;;;;;;5048568;28;20032;-62
2020/12/25 12:26:36;;;;;;;14.60;4.65;;;6.20;99.90;;;;;;5042613;28;20037;-62
2020/12/25 12:29:02;;;;;;;13.40;4.65;;;6.20;99.90;;;;;;5049129;28;20075;-60
2020/12/25 12:31:27;;;;;;;19.15;5.43;;;6.30;99.90;;;;;;5050060;28;20028;-57
2020/12/25 12:33:53;;;;;;;13.77;4.32;;;6.40;99.90;;;;;;5049148;28;20527;-52
2020/12/25 12:36:18;;;;;;;16.38;4.97;;;6.40;99.90;;;;;;5050508;28;20036;-59
2020/12/25 12:38:44;;;;;;;14.50;4.32;;;6.40;99.90;;;;;;5028903;28;20362;-59
2020/12/25 12:41:10;;;;;;;18.35;4.55;;;6.10;99.90;;;;;;5030080;28;20030;-63
2020/12/25 12:43:35;;;;;;;14.10;4.10;;;6.30;99.90;;;;;;5013680;28;20374;-62
2020/12/25 12:46:01;;;;;;;18.52;6.70;;;6.20;99.90;;;;;;5021577;28;20385;-63
2020/12/25 12:48:26;;;;;;;17.05;4.75;;;5.70;99.90;;;;;;5040372;28;20032;-60